Time;durP1;ratioP1;P1;durP2;ratioP2;P2;SDS_P1;SDS_P2;PMS_P1;PMS_P2;Temp;Humidity;BMP_temperature;BMP_pressure;BME280_temperature;BME280_humidity;BME280_pressure;Samples;Min_cycle;Max_cycle;Signal;HPM_P1;HPM_P2
2023/03/24 00:01:00;;;;;;;10.70;9.03;;;;;;;12.17;57.16;94725.44;5011657;28;20181;-49
2023/03/24 00:03:28;;;;;;;11.23;9.47;;;;;;;12.12;57.22;94712.28;5010974;28;20291;-50
2023/03/24 00:06:00;;;;;;;13.87;9.87;;;;;;;12.10;57.35;94703.94;5011408;28;20261;-51
2023/03/24 00:08:29;;;;;;;12.47;9.23;;;;;;;12.08;57.23;94713.50;5010706;28;20189;-49
2023/03/24 00:11:03;;;;;;;14.40;9.33;;;;;;;11.91;57.41;94684.34;5010618;28;20287;-49
2023/03/24 00:13:30;;;;;;;14.20;9.30;;;;;;;12.07;57.45;94717.03;5010219;28;20203;-48
2023/03/24 00:15:58;;;;;;;13.30;9.47;;;;;;;12.03;57.58;94716.50;4991605;28;20263;-53
2023/03/24 00:18:25;;;;;;;13.87;10.03;;;;;;;11.98;57.29;94718.72;4991391;28;20640;-50
2023/03/24 00:20:57;;;;;;;12.03;8.33;;;;;;;12.02;57.51;94727.72;5000570;28;20188;-49
2023/03/24 00:23:24;;;;;;;12.17;9.80;;;;;;;12.00;57.71;94725.31;5010775;28;20223;-49
2023/03/24 00:26:02;;;;;;;11.73;8.80;;;;;;;11.98;57.57;94721.28;5010971;28;20212;-49
2023/03/24 00:28:30;;;;;;;14.40;10.43;;;;;;;11.97;57.58;94728.16;5010708;28;20642;-50
2023/03/24 00:30:57;;;;;;;15.43;9.03;;;;;;;11.94;57.70;94722.53;5011285;28;20188;-49
2023/03/24 00:33:24;;;;;;;11.73;9.37;;;;;;;11.90;57.76;94714.31;5011033;28;20195;-49
2023/03/24 00:35:52;;;;;;;17.57;9.53;;;;;;;11.91;58.11;94720.25;5009591;28;20698;-49
2023/03/24 00:38:19;;;;;;;11.90;9.20;;;;;;;11.89;57.74;94720.38;5010078;28;20197;-48
2023/03/24 00:40:49;;;;;;;14.03;8.90;;;;;;;11.88;57.86;94718.78;5010386;28;20608;-50
2023/03/24 00:43:17;;;;;;;12.17;8.60;;;;;;;11.84;57.93;94724.34;5010661;28;20200;-48
2023/03/24 00:45:45;;;;;;;14.07;8.80;;;;;;;11.86;57.93;94712.19;5010652;28;20212;-50
2023/03/24 00:48:12;;;;;;;14.77;9.37;;;;;;;11.80;58.10;94698.97;5009702;28;20644;-51
2023/03/24 00:50:40;;;;;;;14.17;9.27;;;;;;;11.82;57.97;94706.50;5010393;28;20220;-49
2023/03/24 00:53:08;;;;;;;11.77;8.83;;;;;;;11.80;58.04;94711.78;5010820;28;20584;-49
2023/03/24 00:55:36;;;;;;;15.77;9.20;;;;;;;11.78;58.06;94716.22;5010212;28;20196;-50
2023/03/24 00:58:04;;;;;;;10.67;9.17;;;;;;;11.77;58.09;94708.69;5011128;28;20192;-51
2023/03/24 01:00:32;;;;;;;12.97;9.10;;;;;;;11.77;58.24;94713.81;5009938;28;20667;-51
2023/03/24 01:03:02;;;;;;;13.43;9.47;;;;;;;11.74;58.23;94711.53;5022388;28;20226;-50
2023/03/24 01:05:30;;;;;;;11.80;8.83;;;;;;;11.72;58.49;94708.34;5009847;28;20270;-50
2023/03/24 01:08:01;;;;;;;14.37;9.33;;;;;;;11.70;58.43;94705.94;5010074;28;20199;-50
2023/03/24 01:10:29;;;;;;;12.00;9.17;;;;;;;11.69;58.30;94711.19;5009823;28;20200;-50
2023/03/24 01:12:58;;;;;;;12.50;9.23;;;;;;;11.50;58.46;94684.72;5010122;28;20219;-49
2023/03/24 01:15:28;;;;;;;13.13;9.27;;;;;;;11.67;58.45;94702.84;5009450;28;20200;-49
2023/03/24 01:18:00;;;;;;;15.23;9.63;;;;;;;11.17;58.37;94634.09;5009996;28;20584;-51
2023/03/24 01:20:31;;;;;;;10.70;8.27;;;;;;;11.65;58.79;94705.53;5009649;28;20196;-53
2023/03/24 01:22:58;;;;;;;11.00;8.73;;;;;;;11.63;58.64;94704.88;5009771;28;20288;-51
2023/03/24 01:25:26;;;;;;;12.13;9.97;;;;;;;11.62;58.64;94697.34;5009287;28;20670;-52
2023/03/24 01:27:53;;;;;;;11.37;8.13;;;;;;;11.61;58.87;94700.84;5009166;28;20231;-49
2023/03/24 01:30:23;;;;;;;10.80;8.90;;;;;;;11.51;58.69;94691.47;5008563;28;20219;-49
2023/03/24 01:32:51;;;;;;;12.77;8.13;;;;;;;11.55;58.67;94699.66;5010334;28;20268;-49
2023/03/24 01:35:20;;;;;;;9.63;7.70;;;;;;;11.54;58.60;94698.06;5009781;28;20203;-50
2023/03/24 01:37:47;;;;;;;13.70;8.90;;;;;;;11.47;58.69;94687.56;5009616;28;20283;-49
2023/03/24 01:40:18;;;;;;;13.53;8.43;;;;;;;11.51;58.70;94699.13;5009400;28;20203;-50
2023/03/24 01:42:45;;;;;;;10.73;8.57;;;;;;;11.50;58.72;94694.97;5009583;28;20203;-50
2023/03/24 01:45:41;;;;;;;13.30;8.70;;;;;;;11.49;58.78;94701.06;5009921;28;20184;-50
2023/03/24 01:48:11;;;;;;;10.57;8.40;;;;;;;11.47;58.98;94702.13;5009353;28;20203;-48
2023/03/24 01:50:42;;;;;;;11.77;8.60;;;;;;;11.46;58.82;94696.22;5008587;28;20224;-49
2023/03/24 01:53:09;;;;;;;11.47;8.70;;;;;;;11.31;58.90;94679.69;5008602;28;20319;-47
2023/03/24 01:55:38;;;;;;;9.80;8.20;;;;;;;11.43;58.71;94696.47;5008722;28;20663;-48
2023/03/24 01:58:06;;;;;;;11.13;8.03;;;;;;;11.43;59.04;94698.25;5009342;28;20682;-48
2023/03/24 02:00:36;;;;;;;11.37;8.30;;;;;;;11.41;58.96;94703.50;5008650;28;20204;-48
2023/03/24 02:03:08;;;;;;;9.40;8.00;;;;;;;11.38;58.94;94706.34;5009412;28;20243;-49
2023/03/24 02:05:38;;;;;;;11.57;8.17;;;;;;;11.39;59.02;94704.59;5009250;28;20211;-48
2023/03/24 02:08:10;;;;;;;12.57;8.50;;;;;;;11.15;59.15;94671.84;5009434;28;20207;-48
2023/03/24 02:10:38;;;;;;;12.00;8.10;;;;;;;11.33;59.23;94705.19;5008702;28;20283;-49
2023/03/24 02:13:06;;;;;;;11.33;7.93;;;;;;;11.19;59.21;94689.34;5009510;28;20194;-50
2023/03/24 02:15:39;;;;;;;12.87;8.23;;;;;;;11.32;59.13;94717.19;5009075;28;20198;-48
2023/03/24 02:18:12;;;;;;;10.80;7.50;;;;;;;11.32;59.22;94718.94;5009009;28;20188;-48
2023/03/24 02:21:17;;;;;;;12.30;8.43;;;;;;;11.29;59.21;94714.88;5009103;28;20192;-49
2023/03/24 02:24:07;;;;;;;11.90;8.00;;;;;;;11.27;59.06;94719.34;4963869;28;20204;-49
2023/03/24 02:26:52;;;;;;;9.20;7.37;;;;;;;10.29;59.57;94567.16;4967792;28;20225;-49
2023/03/24 02:29:58;;;;;;;11.03;7.80;;;;;;;11.23;59.18;94711.16;4967611;28;20342;-48
2023/03/24 02:32:59;;;;;;;10.13;7.40;;;;;;;11.20;59.49;94708.06;4967293;28;20201;-49
2023/03/24 02:35:46;;;;;;;9.90;7.63;;;;;;;11.01;59.18;94684.16;4948461;29;20220;-48
2023/03/24 02:38:36;;;;;;;11.20;7.67;;;;;;;11.17;59.43;94706.56;4948366;29;20200;-48
2023/03/24 02:41:11;;;;;;;10.17;7.67;;;;;;;11.17;59.47;94700.66;4948185;29;20194;-49
2023/03/24 02:43:47;;;;;;;12.57;8.27;;;;;;;11.16;59.58;94688.81;4963121;28;20184;-48
2023/03/24 02:46:23;;;;;;;10.53;6.93;;;;;;;11.17;59.47;94691.22;4967013;28;20656;-48
2023/03/24 02:49:03;;;;;;;9.93;7.07;;;;;;;11.18;59.59;94684.34;4967692;28;20186;-48
2023/03/24 02:51:34;;;;;;;10.03;7.57;;;;;;;11.13;59.39;94671.97;4967545;28;20631;-48
2023/03/24 02:54:10;;;;;;;9.83;7.63;;;;;;;11.18;59.61;94674.94;4967088;28;20273;-49
2023/03/24 02:56:45;;;;;;;9.27;7.47;;;;;;;11.07;59.42;94656.38;4967505;28;20208;-49
2023/03/24 02:59:17;;;;;;;10.80;7.83;;;;;;;11.15;59.40;94667.53;4967330;28;20233;-49
2023/03/24 03:01:53;;;;;;;10.10;7.43;;;;;;;11.19;59.52;94675.75;5008590;28;20184;-48
2023/03/24 03:04:25;;;;;;;11.07;7.50;;;;;;;11.20;59.31;94677.34;5008010;28;20184;-48
2023/03/24 03:06:57;;;;;;;9.07;7.67;;;;;;;11.20;59.54;94673.03;5008868;28;20239;-48
2023/03/24 03:09:26;;;;;;;10.53;8.03;;;;;;;11.20;59.42;94678.16;5008456;28;20319;-49
2023/03/24 03:11:58;;;;;;;12.50;7.83;;;;;;;11.22;59.43;94675.44;5011845;28;20209;-49
2023/03/24 03:14:31;;;;;;;9.53;7.57;;;;;;;11.22;59.66;94680.56;5011919;28;20635;-49
2023/03/24 03:17:03;;;;;;;9.50;8.07;;;;;;;11.23;59.71;94671.94;5012762;28;20184;-49
2023/03/24 03:19:33;;;;;;;10.33;7.97;;;;;;;11.23;59.72;94666.81;5012035;28;20185;-49
2023/03/24 03:22:03;;;;;;;9.20;7.67;;;;;;;11.12;59.68;94655.00;5011866;28;20199;-51
2023/03/24 03:24:33;;;;;;;11.57;8.83;;;;;;;11.25;59.77;94675.97;4993950;28;20607;-48
2023/03/24 03:27:07;;;;;;;11.07;9.03;;;;;;;11.13;59.71;94659.16;5011720;28;20222;-49
2023/03/24 03:29:38;;;;;;;13.83;9.47;;;;;;;11.21;59.83;94669.50;5011682;28;20181;-50
2023/03/24 03:32:08;;;;;;;17.17;9.87;;;;;;;11.28;59.84;94677.44;5012407;28;20184;-52
2023/03/24 03:34:42;;;;;;;17.90;10.93;;;;;;;11.28;59.76;94673.13;5011640;28;20201;-51
2023/03/24 03:37:16;;;;;;;16.93;11.13;;;;;;;11.29;60.03;94658.56;5011466;28;20218;-51
2023/03/24 03:39:48;;;;;;;19.03;12.50;;;;;;;11.29;59.80;94668.81;5011247;28;20195;-48
2023/03/24 03:42:16;;;;;;;23.37;12.33;;;;;;;11.30;59.91;94660.16;5011942;28;20189;-51
2023/03/24 03:44:43;;;;;;;27.07;12.80;;;;;;;11.30;59.90;94663.53;5011478;28;20591;-49
2023/03/24 03:47:10;;;;;;;27.93;13.63;;;;;;;11.31;59.88;94659.22;5011306;28;20558;-50
2023/03/24 03:49:37;;;;;;;29.70;14.43;;;;;;;11.31;60.03;94659.22;5011406;28;20191;-49
2023/03/24 03:52:05;;;;;;;24.87;13.60;;;;;;;11.19;59.86;94652.69;5011500;28;20232;-48
2023/03/24 03:54:33;;;;;;;23.50;14.17;;;;;;;11.27;59.91;94675.84;5011353;28;20203;-49
2023/03/24 03:57:00;;;;;;;24.43;13.33;;;;;;;11.28;60.08;94673.13;5011574;28;20197;-50
2023/03/24 03:59:32;;;;;;;22.20;12.77;;;;;;;11.24;60.08;94674.34;5011088;28;20609;-48
2023/03/24 04:02:04;;;;;;;19.60;12.30;;;;;;;11.27;60.03;94678.41;5011857;28;20278;-50
2023/03/24 04:05:02;;;;;;;27.67;14.23;;;;;;;11.26;60.10;94685.25;5011070;28;20200;-48
2023/03/24 04:07:36;;;;;;;25.90;12.27;;;;;;;11.25;59.95;94682.84;5011302;28;20203;-48
2023/03/24 04:10:10;;;;;;;19.90;12.07;;;;;;;11.22;60.15;94683.91;5011017;28;20196;-49
2023/03/24 04:12:59;;;;;;;21.23;11.47;;;;;;;11.21;60.20;94689.19;5011505;28;20184;-49
2023/03/24 04:15:35;;;;;;;18.30;11.17;;;;;;;11.22;60.23;94690.78;5011553;28;20618;-49
2023/03/24 04:18:27;;;;;;;23.43;11.77;;;;;;;11.14;60.23;94685.56;5010878;28;20230;-49
2023/03/24 04:21:08;;;;;;;21.07;11.03;;;;;;;11.04;60.39;94670.25;5011271;28;20563;-49
2023/03/24 04:23:48;;;;;;;19.27;11.00;;;;;;;11.18;60.24;94686.91;5010937;28;20188;-49
2023/03/24 04:26:25;;;;;;;21.87;12.17;;;;;;;11.11;60.30;94679.00;5010634;28;20187;-48
2023/03/24 04:29:05;;;;;;;22.40;11.50;;;;;;;11.01;60.38;94661.13;5010689;28;20279;-48
2023/03/24 04:31:39;;;;;;;18.33;11.23;;;;;;;11.16;60.58;94679.38;5010378;28;20198;-49
2023/03/24 04:34:14;;;;;;;17.93;12.33;;;;;;;11.10;60.31;94681.72;5010966;28;20289;-49
2023/03/24 04:36:49;;;;;;;19.63;11.60;;;;;;;11.17;60.15;94685.28;5010875;28;20228;-49
2023/03/24 04:39:24;;;;;;;23.77;11.87;;;;;;;11.14;60.31;94681.28;5010455;28;20192;-49
2023/03/24 04:41:52;;;;;;;20.87;12.03;;;;;;;11.13;60.36;94674.53;5010329;28;20295;-49
2023/03/24 04:44:21;;;;;;;20.60;12.63;;;;;;;11.26;60.24;94697.25;5011131;28;20258;-49
2023/03/24 04:46:50;;;;;;;22.37;12.67;;;;;;;11.26;60.15;94689.56;5010447;28;20798;-49
2023/03/24 04:49:18;;;;;;;22.67;13.13;;;;;;;11.36;60.14;94710.03;5010680;28;20203;-49
2023/03/24 04:51:45;;;;;;;22.03;12.97;;;;;;;11.43;60.04;94709.28;5009821;28;20212;-49
2023/03/24 04:54:12;;;;;;;22.83;12.67;;;;;;;11.49;60.09;94715.63;5010830;28;20634;-49
2023/03/24 04:56:44;;;;;;;20.77;12.73;;;;;;;11.54;59.84;94716.00;5010228;28;20197;-48
2023/03/24 04:59:11;;;;;;;21.23;12.50;;;;;;;11.63;59.83;94722.00;5010189;28;20287;-48
2023/03/24 05:01:38;;;;;;;26.83;12.97;;;;;;;11.71;59.74;94720.34;5009779;28;20192;-51
2023/03/24 05:04:07;;;;;;;23.23;12.27;;;;;;;11.81;59.48;94715.94;5009887;28;20189;-49
2023/03/24 05:06:34;;;;;;;21.03;12.83;;;;;;;11.97;59.34;94715.34;5010431;28;20238;-49
2023/03/24 05:09:01;;;;;;;19.90;11.27;;;;;;;12.17;59.09;94712.63;5010673;28;20323;-48
2023/03/24 05:11:28;;;;;;;21.37;11.57;;;;;;;12.44;58.45;94719.44;5010275;28;20211;-48
2023/03/24 05:13:55;;;;;;;19.13;12.13;;;;;;;12.77;57.88;94717.91;5010385;28;20196;-49
2023/03/24 05:16:22;;;;;;;17.10;11.67;;;;;;;13.18;57.57;94723.31;5009782;28;20648;-49
2023/03/24 05:18:49;;;;;;;21.90;11.67;;;;;;;13.18;57.40;94648.84;5011068;28;20216;-49
2023/03/24 05:21:19;;;;;;;21.00;10.87;;;;;;;14.23;57.13;94727.19;5010470;28;20200;-50
2023/03/24 05:23:46;;;;;;;17.43;10.37;;;;;;;14.85;56.55;94729.31;5010174;28;20188;-49
2023/03/24 05:26:13;;;;;;;20.03;10.97;;;;;;;15.48;56.01;94731.91;5010365;28;20189;-49
2023/03/24 05:28:40;;;;;;;17.90;10.97;;;;;;;16.20;55.31;94733.53;5009846;28;20220;-50
2023/03/24 05:31:07;;;;;;;15.77;10.47;;;;;;;16.92;54.61;94739.13;5009893;28;20204;-49
2023/03/24 05:33:33;;;;;;;15.03;10.37;;;;;;;17.66;53.81;94731.41;5009322;28;20568;-48
2023/03/24 05:36:00;;;;;;;22.00;7.60;;;;;;;18.42;55.99;94733.66;5009454;28;20232;-50
2023/03/24 05:38:28;;;;;;;9.37;6.10;;;;;;;19.31;62.29;94739.19;5009957;28;20199;-51
2023/03/24 05:40:57;;;;;;;12.07;6.37;;;;;;;20.16;60.73;94731.97;5010056;28;20576;-50
2023/03/24 05:43:24;;;;;;;8.97;6.60;;;;;;;20.93;58.48;94735.91;5009931;28;20228;-51
2023/03/24 05:45:50;;;;;;;9.83;6.67;;;;;;;21.61;56.30;94736.44;5010297;28;20192;-53
2023/03/24 05:48:17;;;;;;;11.73;6.90;;;;;;;22.21;54.36;94741.44;5009807;28;20213;-52
2023/03/24 05:50:44;;;;;;;8.10;6.10;;;;;;;22.73;52.75;94729.09;5009866;28;20228;-53
2023/03/24 05:53:11;;;;;;;11.35;6.57;;;;;;;23.25;51.08;94732.31;5009802;28;20268;-56
2023/03/24 05:55:40;;;;;;;15.27;7.65;;;;;;;23.70;50.03;94735.47;5010141;28;20680;-52
2023/03/24 05:58:07;;;;;;;13.95;7.05;;;;;;;24.16;48.83;94744.59;5009768;28;20189;-52
2023/03/24 06:00:34;;;;;;;19.05;7.32;;;;;;;24.56;48.32;94741.47;5009387;28;20291;-53
2023/03/24 06:03:01;;;;;;;11.02;7.28;;;;;;;24.76;47.12;94718.44;5010124;28;20192;-52
2023/03/24 06:05:27;;;;;;;12.00;6.82;;;;;;;25.26;46.31;94741.63;5009839;28;20203;-52
2023/03/24 06:07:57;;;;;;;11.63;7.45;;;;;;;25.55;45.58;94738.28;5009954;28;20235;-53
2023/03/24 06:10:25;;;;;;;12.70;8.43;;;;;;;25.86;44.81;94743.16;5009679;28;20189;-55
2023/03/24 06:12:53;;;;;;;10.25;8.77;;;;;;;26.13;43.81;94746.06;5009602;28;20278;-54
2023/03/24 06:15:21;;;;;;;13.35;7.88;;;;;;;26.22;42.83;94723.69;5009566;28;20196;-51
2023/03/24 06:17:49;;;;;;;14.45;8.20;;;;;;;26.65;42.52;94747.81;5009859;28;20343;-55
2023/03/24 06:20:17;;;;;;;13.30;8.38;;;;;;;26.90;42.07;94750.03;5009676;28;20271;-53
2023/03/24 06:22:46;;;;;;;17.73;9.20;;;;;;;27.15;41.62;94744.44;5009426;28;20224;-53
2023/03/24 06:25:15;;;;;;;18.20;8.48;;;;;;;27.40;41.26;94751.91;5009522;28;20200;-55
2023/03/24 06:27:45;;;;;;;17.20;8.88;;;;;;;27.66;41.56;94758.31;5009562;28;20239;-55
2023/03/24 06:30:15;;;;;;;17.55;8.98;;;;;;;27.53;41.42;94704.28;5009479;28;20189;-53
2023/03/24 06:32:45;;;;;;;14.55;8.88;;;;;;;28.04;41.39;94747.00;5009894;28;20184;-56
2023/03/24 06:35:12;;;;;;;15.25;8.02;;;;;;;28.26;41.04;94754.84;5005203;28;20203;-54
2023/03/24 06:37:39;;;;;;;14.93;9.45;;;;;;;28.45;40.32;94763.22;5009397;28;20196;-52
2023/03/24 06:40:09;;;;;;;14.90;8.70;;;;;;;28.59;39.63;94756.56;5008434;28;20196;-54
2023/03/24 06:42:36;;;;;;;15.68;8.63;;;;;;;28.72;39.43;94750.88;5009496;28;20298;-55
2023/03/24 06:45:04;;;;;;;18.83;8.82;;;;;;;28.88;39.33;94762.31;5009572;28;20311;-55
2023/03/24 06:47:32;;;;;;;20.05;8.95;;;;;;;29.00;39.08;94756.94;5012515;28;20295;-54
2023/03/24 06:49:58;;;;;;;15.88;8.77;;;;;;;29.11;38.66;94768.34;5012007;28;20199;-51
2023/03/24 06:52:26;;;;;;;13.90;7.45;;;;;;;29.21;38.52;94756.03;5012438;28;20262;-55
2023/03/24 06:54:53;;;;;;;16.88;8.50;;;;;;;29.31;37.94;94757.16;5012119;28;20268;-54
2023/03/24 06:57:20;;;;;;;12.52;7.97;;;;;;;29.40;37.80;94753.00;5012713;28;20607;-54
2023/03/24 06:59:47;;;;;;;12.25;7.47;;;;;;;29.53;37.74;94754.41;5012694;28;20794;-60
2023/03/24 07:02:14;;;;;;;11.45;8.50;;;;;;;29.63;37.42;94763.22;5012551;28;20204;-55
2023/03/24 07:04:42;;;;;;;13.88;8.13;;;;;;;29.72;37.12;94769.59;5011797;28;20192;-55
2023/03/24 07:07:11;;;;;;;11.57;8.10;;;;;;;29.81;37.41;94761.19;5011770;28;20196;-56
2023/03/24 07:09:38;;;;;;;11.75;8.10;;;;;;;29.90;37.25;94765.72;5011612;28;20192;-55
2023/03/24 07:12:05;;;;;;;15.52;7.95;;;;;;;29.97;37.00;94768.91;5012216;28;20239;-54
2023/03/24 07:14:32;;;;;;;10.82;7.07;;;;;;;30.06;37.12;94771.84;5012605;28;20283;-53
2023/03/24 07:16:59;;;;;;;13.50;7.20;;;;;;;30.14;36.88;94771.41;5012336;28;20204;-54
2023/03/24 07:19:26;;;;;;;9.73;8.20;;;;;;;30.21;36.54;94781.69;5011699;28;20184;-53
2023/03/24 07:21:54;;;;;;;7.43;6.70;;;;;;;30.24;36.21;94779.34;5011088;28;20196;-55
2023/03/24 07:24:21;;;;;;;8.85;7.78;;;;;;;30.29;36.27;94777.78;5011742;28;20193;-52
2023/03/24 07:26:47;;;;;;;7.82;6.95;;;;;;;30.00;36.35;94726.19;5012067;28;20184;-54
2023/03/24 07:29:14;;;;;;;11.25;7.30;;;;;;;30.37;36.49;94785.19;5010009;28;20231;-51
2023/03/24 07:31:41;;;;;;;14.20;8.18;;;;;;;30.40;36.09;94779.41;5010842;28;20196;-52
2023/03/24 07:34:08;;;;;;;11.00;8.00;;;;;;;30.42;36.11;94778.06;5008868;28;20231;-55
2023/03/24 07:36:35;;;;;;;12.43;7.20;;;;;;;30.44;35.97;94775.16;5005310;28;20211;-53
2023/03/24 07:39:05;;;;;;;7.60;6.80;;;;;;;30.43;35.73;94766.44;5010751;28;20563;-52
2023/03/24 07:41:33;;;;;;;8.63;7.38;;;;;;;30.47;36.07;94770.16;5010561;28;20639;-51
2023/03/24 07:44:00;;;;;;;8.32;7.22;;;;;;;30.46;36.08;94771.22;5010131;28;20671;-52
2023/03/24 07:46:26;;;;;;;10.35;6.45;;;;;;;30.38;36.00;94761.16;5010068;28;20189;-52
2023/03/24 07:48:53;;;;;;;9.13;6.93;;;;;;;30.49;35.90;94772.56;5010805;28;20213;-53
2023/03/24 07:51:20;;;;;;;14.65;7.13;;;;;;;30.47;35.88;94766.72;5010765;28;20238;-51
2023/03/24 07:53:47;;;;;;;10.95;7.50;;;;;;;30.35;35.75;94758.25;5011031;28;20590;-51
2023/03/24 07:56:15;;;;;;;8.32;6.88;;;;;;;30.41;35.46;94763.28;5010068;28;20254;-50
2023/03/24 07:58:42;;;;;;;10.10;6.68;;;;;;;30.41;35.99;94758.03;5010164;28;20235;-51
2023/03/24 08:01:10;;;;;;;9.20;7.40;;;;;;;30.39;35.87;94762.75;5010597;28;20185;-51
2023/03/24 08:03:37;;;;;;;11.23;7.32;;;;;;;30.34;35.86;94768.03;5010565;28;20211;-51
2023/03/24 08:06:04;;;;;;;9.35;7.03;;;;;;;30.25;35.72;94745.81;5010411;28;20626;-56
2023/03/24 08:08:31;;;;;;;12.15;6.32;;;;;;;30.24;35.47;94749.53;5010778;28;20216;-53
2023/03/24 08:10:58;;;;;;;13.02;6.50;;;;;;;30.18;35.67;94743.44;5010160;28;20224;-56
2023/03/24 08:13:26;;;;;;;10.17;6.60;;;;;;;30.21;35.18;94748.19;5008706;28;20450;-53
2023/03/24 08:15:53;;;;;;;7.28;6.55;;;;;;;30.20;35.13;94738.69;5009796;28;20189;-50
2023/03/24 08:18:20;;;;;;;8.85;7.10;;;;;;;30.18;35.54;94742.63;5009683;28;20200;-50
2023/03/24 08:20:48;;;;;;;8.73;6.50;;;;;;;29.99;35.97;94727.25;5010041;28;20723;-52
2023/03/24 08:23:15;;;;;;;8.63;6.10;;;;;;;30.06;35.73;94736.78;5010459;28;20203;-51
2023/03/24 08:25:42;;;;;;;7.07;6.38;;;;;;;29.98;36.01;94735.41;5009733;28;20199;-52
2023/03/24 08:28:09;;;;;;;6.82;6.13;;;;;;;29.74;35.66;94714.75;5009540;28;20220;-51
2023/03/24 08:30:38;;;;;;;8.05;6.07;;;;;;;29.82;35.74;94736.41;5009921;28;20200;-51
2023/03/24 08:33:10;;;;;;;8.23;6.13;;;;;;;29.77;35.53;94733.75;5009721;28;20572;-51
2023/03/24 08:35:45;;;;;;;7.43;6.13;;;;;;;29.69;35.47;94732.38;5010464;28;20228;-51
2023/03/24 08:46:49;;;;;;;9.98;5.70;;;;;;;29.23;35.79;94703.91;4956740;28;20183;-49
2023/03/24 08:55:25;;;;;;;12.07;5.70;;;;;;;28.98;36.06;94709.00;5020028;28;20206;-62
2023/03/24 08:58:19;;;;;;;5.72;5.22;;;;;;;28.87;35.76;94704.66;5030284;28;20292;-57
2023/03/24 09:07:09;;;;;;;7.53;5.65;;;;;;;28.38;36.22;94694.25;4903638;28;20196;-56
2023/03/24 09:12:50;;;;;;;7.38;5.72;;;;;;;28.18;36.92;94689.53;4919086;28;20193;-57
2023/03/24 09:15:42;;;;;;;6.10;5.32;;;;;;;28.07;36.71;94685.22;4969142;28;20193;-62
2023/03/24 09:18:34;;;;;;;8.98;6.13;;;;;;;27.95;36.72;94674.84;4949717;29;20234;-63
2023/03/24 09:21:20;;;;;;;7.53;5.30;;;;;;;27.85;36.75;94678.16;4949184;29;20230;-66
2023/03/24 09:23:54;;;;;;;8.50;5.70;;;;;;;27.75;36.73;94676.19;4892758;29;20204;-64
2023/03/24 09:26:42;;;;;;;9.57;6.00;;;;;;;27.69;37.29;94679.00;4892723;29;20679;-66
2023/03/24 09:32:22;;;;;;;6.97;5.47;;;;;;;27.46;37.33;94661.59;4845064;29;20706;-64
2023/03/24 09:37:46;;;;;;;8.52;5.78;;;;;;;27.30;37.89;94659.84;4843761;29;20292;-64
2023/03/24 09:43:47;;;;;;;6.45;5.38;;;;;;;27.12;37.90;94656.47;4782887;30;20349;-67
2023/03/24 09:52:25;;;;;;;6.70;5.68;;;;;;;26.87;37.90;94635.06;4782497;30;20314;-56
2023/03/24 09:55:13;;;;;;;7.28;5.43;;;;;;;26.80;38.01;94629.97;4782269;30;20214;-61
2023/03/24 10:31:37;;;;;;;6.70;5.85;;;;;;;25.98;38.71;94597.16;4793454;29;20691;-57
2023/03/24 10:34:04;;;;;;;6.15;5.07;;;;;;;25.98;38.59;94593.75;4803733;29;20271;-60
2023/03/24 10:36:32;;;;;;;8.63;4.78;;;;;;;25.93;38.61;94593.66;4811893;29;20644;-54
2023/03/24 10:38:59;;;;;;;6.55;5.07;;;;;;;25.91;38.90;94591.28;4851915;29;20208;-52
2023/03/24 10:41:29;;;;;;;7.72;5.03;;;;;;;25.86;38.64;94593.00;4869017;29;20200;-60
2023/03/24 10:43:59;;;;;;;5.65;5.13;;;;;;;25.81;38.58;94587.69;4907961;29;20215;-57
2023/03/24 10:46:30;;;;;;;7.75;5.03;;;;;;;25.77;38.41;94596.00;4952245;29;20202;-60
2023/03/24 10:49:10;;;;;;;6.35;5.35;;;;;;;25.75;38.57;94594.63;4952787;29;20230;-57
2023/03/24 10:51:37;;;;;;;6.03;4.70;;;;;;;25.70;38.40;94582.22;5020757;28;20211;-60
2023/03/24 10:54:12;;;;;;;5.97;4.82;;;;;;;25.69;38.21;94583.28;5032995;28;20227;-55
2023/03/24 10:56:41;;;;;;;10.20;5.28;;;;;;;25.67;38.34;94579.28;5027846;28;20565;-60
2023/03/24 10:59:21;;;;;;;7.07;5.15;;;;;;;25.59;38.39;94575.22;5029459;28;20211;-52
2023/03/24 11:01:48;;;;;;;8.15;5.72;;;;;;;25.56;38.71;94578.31;5019371;28;20192;-58
2023/03/24 11:04:19;;;;;;;6.10;5.03;;;;;;;25.54;38.75;94577.75;5021634;28;20272;-52
2023/03/24 11:07:02;;;;;;;5.75;5.00;;;;;;;25.49;38.30;94575.81;5019947;28;20199;-54
2023/03/24 11:09:31;;;;;;;6.88;5.13;;;;;;;25.44;38.43;94580.97;5025880;28;20610;-51
2023/03/24 11:12:02;;;;;;;6.40;5.13;;;;;;;25.40;38.78;94574.59;5018717;28;20196;-53
2023/03/24 11:14:29;;;;;;;7.90;5.15;;;;;;;25.37;38.82;94572.44;5016050;28;20204;-53
2023/03/24 11:17:10;;;;;;;8.60;5.22;;;;;;;25.34;38.56;94569.47;5022734;28;20219;-54
2023/03/24 11:19:39;;;;;;;6.47;4.72;;;;;;;25.31;38.43;94560.28;5018461;28;20185;-51
2023/03/24 11:22:07;;;;;;;5.20;4.60;;;;;;;25.20;38.57;94537.53;5025927;28;20291;-55
2023/03/24 11:24:37;;;;;;;9.10;4.80;;;;;;;25.29;38.75;94549.25;5020685;28;20196;-54
2023/03/24 11:27:04;;;;;;;6.13;5.57;;;;;;;25.30;38.70;94550.03;5022692;28;20200;-55
2023/03/24 11:29:34;;;;;;;7.82;5.05;;;;;;;25.31;38.38;94541.97;5023187;28;20236;-52
2023/03/24 11:32:04;;;;;;;5.53;5.03;;;;;;;25.28;38.58;94534.56;5019591;28;20738;-53
2023/03/24 11:34:36;;;;;;;7.13;5.22;;;;;;;25.28;38.35;94527.50;5016715;28;20304;-51
2023/03/24 11:37:11;;;;;;;5.18;4.28;;;;;;;25.27;38.29;94525.91;5015951;28;20199;-59
2023/03/24 11:39:39;;;;;;;5.20;4.65;;;;;;;25.25;38.54;94522.72;5018027;28;20212;-52
2023/03/24 11:42:15;;;;;;;5.82;4.55;;;;;;;25.22;38.48;94525.84;5023977;28;20211;-53
2023/03/24 11:44:49;;;;;;;6.03;5.00;;;;;;;25.23;38.31;94524.00;5019921;28;20204;-52
2023/03/24 11:47:24;;;;;;;6.10;4.75;;;;;;;25.19;38.27;94509.78;5027378;28;20195;-57
2023/03/24 11:50:00;;;;;;;4.93;4.53;;;;;;;25.22;38.64;94511.94;5019364;28;20212;-51
2023/03/24 11:52:32;;;;;;;5.03;4.53;;;;;;;25.20;38.61;94508.75;5013317;28;20224;-58
2023/03/24 11:54:59;;;;;;;6.30;4.93;;;;;;;25.21;38.44;94505.91;5015475;28;20545;-53
2023/03/24 11:57:43;;;;;;;5.18;4.40;;;;;;;25.23;37.96;94496.00;5014921;28;20200;-52
2023/03/24 12:00:20;;;;;;;5.97;4.82;;;;;;;25.27;38.16;94501.56;5021847;28;20710;-51
2023/03/24 12:03:09;;;;;;;5.60;4.80;;;;;;;25.31;37.70;94491.44;5019105;28;20229;-55
2023/03/24 12:05:41;;;;;;;9.18;4.80;;;;;;;25.17;37.78;94462.09;5020839;28;20202;-52
2023/03/24 12:08:43;;;;;;;4.88;4.25;;;;;;;25.44;37.67;94496.38;5025159;28;20239;-57
2023/03/24 12:11:16;;;;;;;4.97;4.47;;;;;;;25.46;37.86;94486.47;5027694;28;20278;-52
2023/03/24 12:13:47;;;;;;;4.32;3.85;;;;;;;25.56;37.76;94491.06;5024612;28;20207;-56
2023/03/24 12:16:32;;;;;;;6.18;4.22;;;;;;;25.56;37.66;94484.03;5012408;28;20191;-53
2023/03/24 12:19:19;;;;;;;5.00;4.25;;;;;;;25.50;37.84;94471.88;5023257;28;20188;-53
2023/03/24 12:22:00;;;;;;;5.35;4.57;;;;;;;25.45;38.27;94475.19;5024166;28;20192;-55
2023/03/24 12:24:42;;;;;;;4.90;4.30;;;;;;;25.41;38.06;94468.03;5014626;28;20192;-53
2023/03/24 12:27:19;;;;;;;4.90;4.13;;;;;;;25.44;37.97;94467.59;5022942;28;20203;-55
2023/03/24 12:29:59;;;;;;;5.07;4.15;;;;;;;25.46;37.73;94465.50;5018769;28;20223;-51
2023/03/24 12:32:41;;;;;;;5.13;3.67;;;;;;;25.48;37.46;94460.84;5021390;28;20671;-56
2023/03/24 12:35:31;;;;;;;4.82;4.10;;;;;;;25.50;37.59;94450.91;5021075;28;20245;-53
2023/03/24 12:38:11;;;;;;;7.40;4.18;;;;;;;25.51;37.61;94444.63;5022343;28;20200;-53
2023/03/24 12:41:03;;;;;;;5.60;4.38;;;;;;;25.56;37.49;94436.06;5013840;28;20202;-55
2023/03/24 12:43:38;;;;;;;6.72;4.10;;;;;;;25.61;37.52;94429.13;5025213;28;20196;-53
2023/03/24 12:46:17;;;;;;;7.30;4.03;;;;;;;25.68;37.65;94429.72;5027482;28;20191;-53
2023/03/24 12:49:18;;;;;;;4.20;3.80;;;;;;;25.74;37.18;94431.41;5019408;28;20266;-54
2023/03/24 12:51:52;;;;;;;4.18;3.80;;;;;;;25.85;37.22;94436.84;4935020;28;20201;-51
2023/03/24 12:54:28;;;;;;;5.05;4.20;;;;;;;25.80;37.00;94413.97;4946083;28;20201;-56
2023/03/24 12:57:01;;;;;;;3.85;3.42;;;;;;;26.00;37.29;94424.75;4946398;28;20209;-53
2023/03/24 12:59:33;;;;;;;4.70;4.25;;;;;;;26.09;37.25;94412.03;4944654;28;20195;-53
2023/03/24 13:02:10;;;;;;;4.10;3.70;;;;;;;26.15;37.35;94418.94;4935371;28;20221;-54